Time;durP1;ratioP1;P1;durP2;ratioP2;P2;SDS_P1;SDS_P2;PMS_P1;PMS_P2;Temp;Humidity;BMP_temperature;BMP_pressure;BME280_temperature;BME280_humidity;BME280_pressure;Samples;Min_cycle;Max_cycle;Signal;HPM_P1;HPM_P2
2023/02/14 00:00:54;;;;;;;71.03;29.70;;;3.80;99.90;;;;;;5052725;28;20037;-64
2023/02/14 00:03:19;;;;;;;72.10;29.80;;;4.20;99.90;;;;;;5052483;28;20417;-64
2023/02/14 00:05:45;;;;;;;63.28;31.33;;;4.10;99.90;;;;;;5052646;28;20037;-64
2023/02/14 00:08:11;;;;;;;51.25;28.35;;;4.00;99.90;;;;;;5051132;28;20399;-64
2023/02/14 00:10:36;;;;;;;50.20;29.85;;;3.70;99.90;;;;;;5052397;28;20076;-64
2023/02/14 00:13:02;;;;;;;50.53;29.58;;;3.80;99.90;;;;;;5052632;28;20459;-64
2023/02/14 00:15:28;;;;;;;48.53;29.25;;;4.10;99.90;;;;;;5051897;28;20055;-63
2023/02/14 00:17:58;;;;;;;51.85;28.85;;;3.90;99.90;;;;;;5052509;28;20045;-64
2023/02/14 00:20:24;;;;;;;49.53;27.83;;;4.00;99.90;;;;;;5052289;28;20041;-64
2023/02/14 00:22:50;;;;;;;48.60;28.33;;;3.80;99.90;;;;;;5052283;28;20036;-64
2023/02/14 00:25:17;;;;;;;41.88;26.40;;;3.90;99.90;;;;;;5052111;28;20071;-64
2023/02/14 00:27:42;;;;;;;54.17;27.88;;;3.60;99.90;;;;;;5052169;28;20037;-64
2023/02/14 00:30:09;;;;;;;43.92;25.02;;;3.70;99.90;;;;;;5052254;28;20124;-64
2023/02/14 00:32:37;;;;;;;44.22;25.85;;;3.80;99.90;;;;;;5050901;28;20044;-64
2023/02/14 00:35:02;;;;;;;42.55;25.23;;;3.80;99.90;;;;;;5052113;28;20079;-64
2023/02/14 00:37:28;;;;;;;38.75;23.95;;;3.80;99.90;;;;;;5051960;28;20080;-65
2023/02/14 00:39:56;;;;;;;44.03;25.25;;;3.50;99.90;;;;;;5052302;28;20048;-64
2023/02/14 00:42:22;;;;;;;45.80;26.05;;;3.70;99.90;;;;;;5050590;28;20392;-64
2023/02/14 00:44:47;;;;;;;46.35;25.35;;;3.60;99.90;;;;;;5052018;28;20033;-64
2023/02/14 00:47:13;;;;;;;44.30;25.27;;;3.50;99.90;;;;;;5050587;28;20184;-64
2023/02/14 00:49:39;;;;;;;44.80;25.35;;;3.60;99.90;;;;;;5051927;28;20045;-64
2023/02/14 00:52:04;;;;;;;44.42;25.20;;;3.60;99.90;;;;;;5052003;28;20037;-64
2023/02/14 00:54:30;;;;;;;45.13;24.90;;;3.70;99.90;;;;;;5050189;28;20111;-64
2023/02/14 00:56:55;;;;;;;46.75;25.02;;;3.60;99.90;;;;;;5051707;28;20068;-64
2023/02/14 00:59:21;;;;;;;39.38;24.45;;;3.40;99.90;;;;;;5051802;28;20072;-64
2023/02/14 01:01:47;;;;;;;47.38;26.15;;;3.40;99.90;;;;;;5051758;28;20045;-64
2023/02/14 01:04:12;;;;;;;43.83;25.25;;;3.40;99.90;;;;;;5051782;28;20036;-64
2023/02/14 01:06:38;;;;;;;47.13;25.52;;;3.40;99.90;;;;;;5050327;28;20048;-64
2023/02/14 01:09:04;;;;;;;38.47;23.60;;;3.60;99.90;;;;;;5051620;28;20056;-64
2023/02/14 01:11:30;;;;;;;40.15;22.90;;;3.50;99.90;;;;;;5051833;28;20072;-64
2023/02/14 01:13:57;;;;;;;42.55;23.77;;;3.50;99.90;;;;;;5051493;28;20206;-64
2023/02/14 01:16:25;;;;;;;38.10;24.33;;;3.50;99.90;;;;;;5051365;28;20056;-64
2023/02/14 01:18:51;;;;;;;39.00;24.08;;;3.60;99.90;;;;;;5051255;28;20122;-64
2023/02/14 01:21:21;;;;;;;36.95;23.60;;;3.30;99.90;;;;;;5051466;28;20490;-64
2023/02/14 01:23:49;;;;;;;40.38;24.67;;;3.30;99.90;;;;;;5051431;28;20112;-64
2023/02/14 01:26:15;;;;;;;42.05;25.02;;;3.20;99.90;;;;;;5051655;28;20041;-64
2023/02/14 01:28:41;;;;;;;39.95;23.35;;;3.20;99.90;;;;;;5051750;28;20033;-64
2023/02/14 01:31:14;;;;;;;36.50;22.52;;;3.50;99.90;;;;;;5051378;28;20087;-64
2023/02/14 01:33:41;;;;;;;36.22;23.95;;;3.20;99.90;;;;;;5050307;28;20086;-64
2023/02/14 01:36:17;;;;;;;42.05;24.02;;;3.10;99.90;;;;;;5050386;28;20045;-64
2023/02/14 01:38:43;;;;;;;36.25;23.58;;;3.60;99.90;;;;;;5050164;28;20048;-64
2023/02/14 01:41:09;;;;;;;36.88;22.67;;;3.30;99.90;;;;;;5051340;28;20041;-64
2023/02/14 01:43:49;;;;;;;40.65;23.88;;;3.50;99.90;;;;;;5051341;28;20498;-64
2023/02/14 01:46:14;;;;;;;35.70;23.15;;;3.50;99.90;;;;;;5051315;28;20065;-64
2023/02/14 01:48:40;;;;;;;38.47;23.08;;;3.40;99.90;;;;;;5051097;28;20095;-64
2023/02/14 01:51:06;;;;;;;35.00;23.23;;;3.30;99.90;;;;;;5049886;28;20060;-64
2023/02/14 01:53:32;;;;;;;36.47;22.63;;;3.10;99.90;;;;;;5051354;28;20124;-64
2023/02/14 01:56:13;;;;;;;41.53;23.52;;;3.20;99.90;;;;;;5051433;28;20120;-65
2023/02/14 01:58:43;;;;;;;40.28;22.73;;;3.40;99.90;;;;;;5051185;28;20040;-64
2023/02/14 02:01:12;;;;;;;33.70;21.98;;;3.10;99.90;;;;;;5050995;28;20043;-64
2023/02/14 02:03:47;;;;;;;34.30;22.55;;;3.20;99.90;;;;;;5051205;28;20033;-65
2023/02/14 02:06:20;;;;;;;33.08;21.45;;;3.10;99.90;;;;;;5052700;28;20044;-64
2023/02/14 02:09:18;;;;;;;38.58;23.35;;;3.00;99.90;;;;;;5054853;28;20136;-64
2023/02/14 02:11:44;;;;;;;32.50;21.13;;;3.30;99.90;;;;;;5054626;28;20044;-64
2023/02/14 02:14:19;;;;;;;38.08;22.90;;;3.00;99.90;;;;;;5054855;28;20094;-64
2023/02/14 02:16:54;;;;;;;36.85;22.00;;;3.30;99.90;;;;;;5055154;28;20175;-64
2023/02/14 02:19:58;;;;;;;42.83;23.17;;;3.20;99.90;;;;;;5054399;28;20052;-64
2023/02/14 02:22:39;;;;;;;37.42;22.85;;;3.30;99.90;;;;;;5054472;28;20491;-65
2023/02/14 02:25:08;;;;;;;39.00;22.13;;;3.20;99.90;;;;;;5054371;28;20514;-64
2023/02/14 02:28:11;;;;;;;39.67;23.55;;;3.20;99.90;;;;;;5053295;28;20037;-64
2023/02/14 02:31:13;;;;;;;41.85;23.83;;;3.20;99.90;;;;;;5054351;28;20041;-64
2023/02/14 02:34:02;;;;;;;38.75;22.02;;;3.20;99.90;;;;;;5053205;28;20605;-65
2023/02/14 02:37:03;;;;;;;42.20;23.85;;;2.80;99.90;;;;;;5054229;28;20044;-65
2023/02/14 02:39:48;;;;;;;42.90;22.55;;;2.80;99.90;;;;;;5012331;28;20041;-64
2023/02/14 02:42:35;;;;;;;38.75;23.08;;;3.30;99.90;;;;;;5012412;28;20046;-64
2023/02/14 02:45:21;;;;;;;41.92;23.77;;;3.00;99.90;;;;;;4995781;28;20132;-64
2023/02/14 02:48:09;;;;;;;39.05;24.05;;;3.10;99.90;;;;;;4995233;28;20081;-64
2023/02/14 02:53:39;;;;;;;39.45;22.98;;;3.30;99.90;;;;;;5012092;28;20054;-64
2023/02/14 02:59:05;;;;;;;39.05;23.90;;;2.90;99.90;;;;;;5011975;28;20049;-64
2023/02/14 03:01:36;;;;;;;37.58;22.92;;;3.10;99.90;;;;;;5011877;28;20411;-64
2023/02/14 03:07:33;;;;;;;38.15;22.98;;;2.80;99.90;;;;;;4972908;28;20635;-64
2023/02/14 03:09:55;;;;;;;40.92;24.08;;;2.90;99.90;;;;;;4972590;28;20046;-65
2023/02/14 03:12:33;;;;;;;37.95;22.98;;;2.80;99.90;;;;;;4972737;28;20047;-64
2023/02/14 03:15:45;;;;;;;44.17;23.85;;;2.90;99.90;;;;;;4972784;28;20062;-64
2023/02/14 03:18:38;;;;;;;39.58;23.58;;;2.90;99.90;;;;;;4971895;28;20101;-65
2023/02/14 03:21:12;;;;;;;42.38;24.48;;;2.80;99.90;;;;;;4972547;28;20397;-64
2023/02/14 03:24:04;;;;;;;41.33;23.27;;;3.10;99.90;;;;;;4972914;28;20058;-64
2023/02/14 03:26:47;;;;;;;42.30;24.50;;;3.10;99.90;;;;;;4972421;28;20122;-65
2023/02/14 03:29:24;;;;;;;40.75;23.73;;;2.80;99.90;;;;;;4972688;28;20572;-64
2023/02/14 03:32:01;;;;;;;42.13;23.20;;;3.10;99.90;;;;;;4972457;28;20095;-64
2023/02/14 03:34:42;;;;;;;40.38;24.65;;;3.00;99.90;;;;;;4972454;28;20054;-64
2023/02/14 03:37:22;;;;;;;47.60;25.88;;;2.90;99.90;;;;;;4972170;28;20617;-64
2023/02/14 03:40:22;;;;;;;43.15;23.65;;;2.80;99.90;;;;;;4972067;28;20054;-64
2023/02/14 03:42:56;;;;;;;43.00;23.00;;;2.80;99.90;;;;;;4944372;29;20134;-65
2023/02/14 03:45:31;;;;;;;41.60;24.40;;;3.00;99.90;;;;;;4952735;29;20398;-64
2023/02/14 03:48:00;;;;;;;38.78;23.88;;;3.00;99.90;;;;;;4952597;29;20421;-64
2023/02/14 03:50:27;;;;;;;43.70;24.42;;;2.70;99.90;;;;;;4952807;29;20110;-64
2023/02/14 03:52:55;;;;;;;43.50;24.42;;;2.80;99.90;;;;;;4961693;28;20086;-64
2023/02/14 03:55:42;;;;;;;43.10;24.45;;;2.80;99.90;;;;;;4991382;28;20061;-65
2023/02/14 03:58:23;;;;;;;41.92;25.08;;;2.90;99.90;;;;;;4991152;28;20050;-65
2023/02/14 04:00:53;;;;;;;48.38;26.50;;;3.00;99.90;;;;;;4991228;28;20053;-65
2023/02/14 04:03:22;;;;;;;45.38;25.27;;;2.80;99.90;;;;;;4991233;28;20049;-64
2023/02/14 04:05:51;;;;;;;42.92;25.42;;;2.60;99.90;;;;;;4991259;28;20042;-65
2023/02/14 04:08:22;;;;;;;43.35;23.52;;;2.80;99.90;;;;;;4991090;28;20121;-65
2023/02/14 04:10:49;;;;;;;43.50;25.23;;;2.90;99.90;;;;;;4991045;28;20042;-64
2023/02/14 04:13:14;;;;;;;46.15;24.65;;;2.60;99.90;;;;;;4991061;28;20046;-65
2023/02/14 04:15:40;;;;;;;51.20;25.73;;;2.80;99.90;;;;;;4991001;28;20508;-65
2023/02/14 04:20:49;;;;;;;49.88;27.00;;;2.50;99.90;;;;;;5052177;28;20064;-65
2023/02/14 04:23:15;;;;;;;47.83;25.58;;;3.00;99.90;;;;;;5052162;28;20109;-65
2023/02/14 04:25:41;;;;;;;46.70;25.95;;;2.50;99.90;;;;;;5052314;28;20037;-65
2023/02/14 04:28:08;;;;;;;44.70;24.05;;;2.70;99.90;;;;;;5051023;28;20040;-64
2023/02/14 04:30:33;;;;;;;53.13;26.25;;;2.60;99.90;;;;;;5051348;28;20041;-64
2023/02/14 04:32:59;;;;;;;44.70;24.17;;;2.50;99.90;;;;;;5052045;28;20059;-64
2023/02/14 04:35:24;;;;;;;52.22;25.10;;;3.00;99.90;;;;;;5051973;28;20051;-65
2023/02/14 04:37:50;;;;;;;54.05;26.83;;;2.60;99.90;;;;;;5052310;28;20041;-65
2023/02/14 04:40:16;;;;;;;41.83;23.63;;;2.80;99.90;;;;;;5052406;28;20049;-64
2023/02/14 04:42:43;;;;;;;44.65;25.58;;;2.50;99.90;;;;;;5052035;28;20118;-64
2023/02/14 04:45:09;;;;;;;45.92;26.05;;;2.80;99.90;;;;;;5052186;28;20029;-64
2023/02/14 04:47:34;;;;;;;50.10;25.48;;;2.90;99.90;;;;;;5052157;28;20040;-64
2023/02/14 04:50:00;;;;;;;45.90;26.00;;;2.60;99.90;;;;;;5051853;28;20036;-65
2023/02/14 04:52:26;;;;;;;45.92;24.85;;;2.40;99.90;;;;;;5050555;28;20457;-65
2023/02/14 04:54:52;;;;;;;48.72;26.35;;;2.80;99.90;;;;;;5051810;28;20037;-64
2023/02/14 04:57:17;;;;;;;40.85;24.30;;;2.40;99.90;;;;;;5051660;28;20090;-65
2023/02/14 04:59:43;;;;;;;50.38;24.25;;;2.70;99.90;;;;;;5051700;28;20037;-64
2023/02/14 05:02:08;;;;;;;43.25;24.90;;;2.70;99.90;;;;;;5050862;28;20495;-64
2023/02/14 05:04:34;;;;;;;44.10;24.92;;;2.60;99.90;;;;;;5051570;28;20041;-65
2023/02/14 05:07:00;;;;;;;49.28;26.08;;;2.60;99.90;;;;;;5051771;28;20072;-65
2023/02/14 05:09:25;;;;;;;41.10;23.55;;;2.40;99.90;;;;;;5051710;28;20083;-64
2023/02/14 05:11:51;;;;;;;48.45;25.48;;;2.40;99.90;;;;;;5051652;28;20068;-65
2023/02/14 05:14:17;;;;;;;46.47;24.67;;;2.50;99.90;;;;;;5051587;28;20037;-65
2023/02/14 05:16:42;;;;;;;47.58;24.02;;;2.50;99.90;;;;;;5051579;28;20080;-65
2023/02/14 05:19:08;;;;;;;45.72;25.10;;;2.70;99.90;;;;;;5050156;28;20085;-64
2023/02/14 05:21:33;;;;;;;42.83;24.77;;;2.50;99.90;;;;;;5051663;28;20079;-64
2023/02/14 05:24:00;;;;;;;48.65;24.50;;;2.60;99.90;;;;;;5051534;28;20044;-65
2023/02/14 05:26:26;;;;;;;45.00;24.95;;;2.60;99.90;;;;;;5051567;28;20101;-65
2023/02/14 05:28:52;;;;;;;44.38;25.70;;;2.80;99.90;;;;;;5051342;28;20037;-64
2023/02/14 05:31:17;;;;;;;47.13;25.65;;;2.30;99.90;;;;;;5051447;28;20044;-65
2023/02/14 05:33:43;;;;;;;52.20;26.42;;;2.50;99.90;;;;;;5050046;28;20041;-65
2023/02/14 05:36:09;;;;;;;51.15;27.77;;;2.30;99.90;;;;;;5051557;28;20037;-65
2023/02/14 05:38:35;;;;;;;52.90;27.48;;;2.70;99.90;;;;;;5051540;28;20048;-65
2023/02/14 05:41:01;;;;;;;52.33;27.73;;;2.60;99.90;;;;;;5052054;28;20037;-64
2023/02/14 05:43:27;;;;;;;59.97;28.00;;;2.40;99.90;;;;;;5055372;28;20049;-64
2023/02/14 05:45:53;;;;;;;74.32;29.02;;;2.40;99.90;;;;;;5055276;28;20048;-65
2023/02/14 05:48:19;;;;;;;53.80;28.20;;;2.70;99.90;;;;;;5055492;28;20364;-65
2023/02/14 05:50:44;;;;;;;89.68;29.83;;;2.50;99.90;;;;;;5055222;28;20052;-65
2023/02/14 05:53:11;;;;;;;57.60;28.27;;;2.70;99.90;;;;;;5051571;28;20118;-65
2023/02/14 05:55:37;;;;;;;61.13;28.40;;;2.40;99.90;;;;;;5052555;28;20045;-65
2023/02/14 05:58:02;;;;;;;83.50;30.35;;;2.60;99.90;;;;;;5053260;28;20399;-65
2023/02/14 06:00:28;;;;;;;65.68;28.35;;;2.80;99.90;;;;;;5054879;28;20040;-65
2023/02/14 06:02:54;;;;;;;92.30;30.42;;;2.50;99.90;;;;;;5054885;28;20037;-65
2023/02/14 06:05:20;;;;;;;61.45;29.40;;;2.70;99.90;;;;;;5055297;28;20037;-65
2023/02/14 06:07:49;;;;;;;84.43;28.02;;;2.30;99.90;;;;;;5055150;28;20187;-65
2023/02/14 06:10:20;;;;;;;96.93;30.30;;;2.80;99.90;;;;;;5054741;28;20522;-65
2023/02/14 06:12:48;;;;;;;109.63;31.52;;;2.30;99.90;;;;;;5054779;28;20076;-64
2023/02/14 06:15:14;;;;;;;83.97;28.33;;;2.30;99.90;;;;;;5054679;28;20475;-65
2023/02/14 06:17:40;;;;;;;63.55;27.98;;;2.90;99.90;;;;;;5054338;28;20115;-65
2023/02/14 06:20:08;;;;;;;87.38;30.15;;;2.80;99.90;;;;;;5054658;28;20388;-64
2023/02/14 06:22:34;;;;;;;64.45;30.10;;;2.60;99.90;;;;;;5052212;28;20051;-65
2023/02/14 06:25:00;;;;;;;59.80;27.65;;;2.50;99.90;;;;;;5053016;28;20044;-65
2023/02/14 06:27:28;;;;;;;50.28;27.10;;;2.80;99.90;;;;;;5034536;28;20041;-64
2023/02/14 06:29:53;;;;;;;56.83;28.02;;;2.80;99.90;;;;;;5034500;28;20052;-65
2023/02/14 06:32:19;;;;;;;60.67;27.38;;;2.70;99.90;;;;;;5034584;28;20045;-65
2023/02/14 06:34:44;;;;;;;52.42;28.17;;;2.30;99.90;;;;;;5034468;28;20455;-65
2023/02/14 06:37:10;;;;;;;52.67;26.13;;;2.80;99.90;;;;;;5034512;28;20496;-65
2023/02/14 06:39:36;;;;;;;81.57;26.88;;;2.70;99.90;;;;;;5034372;28;20068;-65
2023/02/14 06:42:01;;;;;;;93.20;26.95;;;2.80;99.90;;;;;;5034333;28;20048;-65
2023/02/14 06:44:27;;;;;;;54.80;26.58;;;2.50;99.90;;;;;;5036365;28;20038;-65
2023/02/14 06:46:52;;;;;;;83.03;26.70;;;2.30;99.90;;;;;;5054297;28;20037;-65
2023/02/14 06:49:18;;;;;;;83.75;26.45;;;2.20;99.90;;;;;;5054088;28;20387;-65
2023/02/14 06:51:44;;;;;;;63.72;25.92;;;2.60;99.90;;;;;;5053358;28;20052;-64
2023/02/14 06:54:09;;;;;;;123.95;27.35;;;2.40;99.90;;;;;;5053303;28;20056;-65
2023/02/14 06:56:35;;;;;;;77.20;24.55;;;2.40;99.90;;;;;;5054051;28;20041;-65
2023/02/14 06:59:00;;;;;;;51.25;23.45;;;2.50;99.90;;;;;;5053881;28;20037;-65
2023/02/14 07:01:26;;;;;;;77.72;26.83;;;2.50;99.90;;;;;;5053779;28;20479;-65
2023/02/14 07:03:52;;;;;;;121.60;26.83;;;2.50;99.90;;;;;;5054011;28;20068;-65
2023/02/14 07:06:17;;;;;;;91.80;25.13;;;2.50;99.90;;;;;;5053878;28;20115;-65
2023/02/14 07:08:43;;;;;;;151.30;27.75;;;2.30;99.90;;;;;;5053762;28;20063;-65
2023/02/14 07:11:09;;;;;;;124.20;26.10;;;2.40;99.90;;;;;;5053529;28;20041;-65
2023/02/14 07:13:34;;;;;;;98.50;26.85;;;2.10;99.90;;;;;;5053859;28;20048;-65
2023/02/14 07:16:00;;;;;;;95.97;25.95;;;2.10;99.90;;;;;;5052530;28;20057;-65
2023/02/14 07:18:25;;;;;;;67.38;25.45;;;2.50;99.90;;;;;;5053333;28;20425;-65
2023/02/14 07:20:51;;;;;;;53.13;23.83;;;2.30;99.90;;;;;;5053317;28;20083;-65
2023/02/14 07:23:17;;;;;;;46.42;24.33;;;2.30;99.90;;;;;;5052110;28;20064;-65
2023/02/14 07:25:43;;;;;;;45.95;22.80;;;2.00;99.90;;;;;;5051829;28;20076;-65
2023/02/14 07:28:08;;;;;;;79.20;26.08;;;2.30;99.90;;;;;;5052431;28;20118;-64
2023/02/14 07:30:34;;;;;;;42.90;23.95;;;2.40;99.90;;;;;;5053250;28;20044;-65
2023/02/14 07:33:00;;;;;;;73.82;25.02;;;2.60;99.90;;;;;;5053484;28;20132;-65
2023/02/14 07:35:25;;;;;;;56.20;26.25;;;2.20;99.90;;;;;;5053160;28;20059;-65
2023/02/14 07:37:51;;;;;;;63.53;25.35;;;2.10;99.90;;;;;;5053058;28;20045;-65
2023/02/14 07:40:18;;;;;;;46.30;24.35;;;2.30;99.90;;;;;;5051967;28;20448;-65
2023/02/14 07:42:50;;;;;;;43.42;24.05;;;2.20;99.90;;;;;;5052152;28;20059;-65
2023/02/14 07:45:16;;;;;;;40.08;23.77;;;2.20;99.90;;;;;;5053227;28;20041;-65
2023/02/14 07:47:42;;;;;;;42.63;23.27;;;2.30;99.90;;;;;;5053015;28;20043;-65
2023/02/14 07:50:08;;;;;;;44.08;23.83;;;2.60;99.90;;;;;;5053047;28;20038;-65
2023/02/14 07:52:33;;;;;;;40.85;22.92;;;2.50;99.90;;;;;;5052005;28;20414;-65
2023/02/14 07:54:59;;;;;;;50.17;22.27;;;2.70;99.90;;;;;;5051373;28;20112;-65
2023/02/14 07:57:24;;;;;;;46.60;22.10;;;2.20;99.90;;;;;;5051068;28;20028;-65
2023/02/14 07:59:50;;;;;;;40.05;22.33;;;2.20;99.90;;;;;;5051285;28;20095;-65
2023/02/14 08:02:16;;;;;;;41.70;21.83;;;2.40;99.90;;;;;;5052715;28;20056;-65
2023/02/14 08:04:41;;;;;;;37.03;20.85;;;2.70;99.90;;;;;;5052589;28;20437;-65
2023/02/14 08:07:07;;;;;;;32.97;20.75;;;2.40;99.90;;;;;;5052955;28;20561;-65
2023/02/14 08:09:33;;;;;;;35.83;23.00;;;2.80;99.90;;;;;;5050206;28;20033;-65
2023/02/14 08:14:43;;;;;;;32.90;20.77;;;2.90;99.90;;;;;;5052336;28;20557;-65
2023/02/14 08:17:12;;;;;;;31.95;20.95;;;3.30;99.90;;;;;;5052543;28;20040;-65
2023/02/14 08:19:38;;;;;;;29.48;20.00;;;3.50;99.90;;;;;;5052257;28;20056;-65
2023/02/14 08:22:04;;;;;;;28.42;19.65;;;3.50;99.90;;;;;;5051963;28;20033;-64
2023/02/14 08:24:30;;;;;;;29.45;19.83;;;3.90;99.90;;;;;;5051905;28;20094;-64
2023/02/14 08:26:55;;;;;;;26.20;18.40;;;4.00;99.90;;;;;;5052431;28;20032;-65
2023/02/14 08:29:21;;;;;;;27.83;19.00;;;4.30;99.90;;;;;;5052388;28;20487;-64
2023/02/14 08:31:47;;;;;;;25.60;18.02;;;4.50;99.90;;;;;;5052100;28;20486;-64
2023/02/14 08:34:14;;;;;;;24.98;18.80;;;4.70;99.90;;;;;;5051501;28;20044;-64
2023/02/14 08:36:40;;;;;;;23.20;17.77;;;4.80;99.90;;;;;;5050459;28;20108;-64
2023/02/14 08:39:07;;;;;;;24.55;17.58;;;5.10;99.90;;;;;;5051237;28;20041;-64
2023/02/14 08:41:34;;;;;;;22.65;17.92;;;5.20;99.90;;;;;;5051850;28;20479;-64
2023/02/14 08:43:59;;;;;;;23.17;17.17;;;5.60;99.90;;;;;;5051020;28;20062;-64
2023/02/14 08:46:25;;;;;;;22.38;16.77;;;5.70;99.90;;;;;;5051989;28;20041;-60
2023/02/14 08:48:52;;;;;;;20.85;16.33;;;6.00;99.90;;;;;;5051755;28;20131;-61
2023/02/14 08:51:18;;;;;;;20.35;15.70;;;6.30;99.90;;;;;;5051862;28;20102;-60
2023/02/14 08:53:45;;;;;;;21.63;16.35;;;6.40;99.90;;;;;;5051597;28;20052;-61
2023/02/14 08:56:12;;;;;;;19.50;15.60;;;6.60;99.90;;;;;;5051982;28;20171;-60
2023/02/14 08:58:38;;;;;;;19.95;15.63;;;6.70;99.90;;;;;;5051877;28;20102;-61
2023/02/14 09:01:09;;;;;;;21.48;16.27;;;6.90;99.90;;;;;;5051666;28;20041;-60
2023/02/14 09:03:35;;;;;;;20.90;16.02;;;7.20;99.90;;;;;;5049806;28;20382;-61
2023/02/14 09:06:05;;;;;;;20.45;16.63;;;7.30;99.90;;;;;;5049926;28;20029;-60
2023/02/14 09:08:30;;;;;;;22.15;16.50;;;7.50;99.90;;;;;;5049845;28;20033;-60
2023/02/14 09:10:57;;;;;;;19.70;15.77;;;7.60;99.90;;;;;;5051814;28;20051;-60
2023/02/14 09:13:22;;;;;;;20.45;15.77;;;7.80;99.90;;;;;;5051695;28;20116;-61
2023/02/14 09:15:48;;;;;;;19.17;15.50;;;8.00;99.90;;;;;;5051295;28;20468;-61
2023/02/14 09:18:15;;;;;;;20.48;16.02;;;8.30;99.90;;;;;;5051384;28;20059;-60
2023/02/14 09:20:43;;;;;;;20.98;16.80;;;8.30;99.90;;;;;;5051373;28;20052;-60
2023/02/14 09:23:09;;;;;;;20.73;16.50;;;8.30;99.90;;;;;;5050879;28;20032;-60
2023/02/14 09:25:34;;;;;;;21.40;15.07;;;8.30;99.90;;;;;;5051735;28;20117;-60
2023/02/14 09:28:00;;;;;;;24.75;17.27;;;8.30;99.90;;;;;;5051525;28;20063;-60
2023/02/14 09:30:26;;;;;;;20.27;16.42;;;8.40;99.90;;;;;;5051691;28;20072;-61
2023/02/14 09:32:52;;;;;;;21.55;17.45;;;8.30;99.90;;;;;;5051717;28;20045;-60
2023/02/14 09:35:18;;;;;;;23.27;16.42;;;8.50;99.90;;;;;;5050245;28;20051;-61
2023/02/14 09:37:43;;;;;;;18.85;15.95;;;8.40;99.90;;;;;;5051279;28;20049;-60
2023/02/14 09:40:13;;;;;;;20.70;16.70;;;8.50;99.90;;;;;;5050970;28;20045;-60
2023/02/14 09:43:06;;;;;;;19.35;16.98;;;8.50;99.90;;;;;;5051363;28;20115;-60
2023/02/14 09:45:32;;;;;;;21.40;16.98;;;8.40;99.90;;;;;;5051203;28;20037;-61
2023/02/14 09:48:36;;;;;;;24.13;17.08;;;8.20;99.90;;;;;;5051532;28;20067;-60
2023/02/14 09:51:12;;;;;;;22.50;17.63;;;8.10;99.90;;;;;;5051345;28;20087;-60
2023/02/14 09:53:50;;;;;;;19.55;16.33;;;8.10;99.90;;;;;;5050469;28;20040;-60
2023/02/14 09:56:25;;;;;;;20.95;17.02;;;8.10;99.90;;;;;;5049987;28;20055;-60
2023/02/14 09:59:14;;;;;;;23.23;18.17;;;8.30;99.90;;;;;;5050792;28;20045;-61
2023/02/14 10:01:50;;;;;;;21.52;17.73;;;8.20;99.90;;;;;;5051044;28;20134;-60
2023/02/14 10:04:50;;;;;;;22.88;17.15;;;8.30;99.90;;;;;;5051070;28;20036;-61
2023/02/14 10:07:34;;;;;;;25.83;17.92;;;8.50;99.90;;;;;;5051256;28;20376;-60
2023/02/14 10:10:15;;;;;;;22.42;18.65;;;8.60;99.90;;;;;;5051196;28;20041;-61
2023/02/14 10:12:52;;;;;;;21.27;16.67;;;8.70;99.90;;;;;;5051043;28;20048;-61
2023/02/14 10:15:24;;;;;;;23.65;17.40;;;8.70;99.90;;;;;;5050986;28;20484;-61
2023/02/14 10:18:02;;;;;;;22.80;17.23;;;8.90;99.90;;;;;;5050062;28;20458;-59
2023/02/14 10:20:40;;;;;;;22.10;17.50;;;9.00;99.90;;;;;;5051231;28;20521;-60
2023/02/14 10:23:23;;;;;;;22.83;18.58;;;9.30;99.90;;;;;;5050821;28;20037;-61
2023/02/14 10:25:59;;;;;;;20.58;16.80;;;9.40;99.90;;;;;;5050852;28;20530;-60
2023/02/14 10:28:34;;;;;;;22.40;17.75;;;9.50;99.90;;;;;;5052814;28;20425;-60
2023/02/14 10:31:15;;;;;;;22.15;18.00;;;9.70;99.90;;;;;;5054485;28;20041;-61
2023/02/14 10:33:45;;;;;;;23.17;17.95;;;9.60;99.90;;;;;;5054305;28;20483;-61
2023/02/14 10:36:29;;;;;;;22.20;17.05;;;9.90;99.90;;;;;;5054771;28;20045;-60
2023/02/14 10:39:15;;;;;;;22.85;18.60;;;9.90;99.90;;;;;;5053177;28;20041;-60
2023/02/14 10:42:09;;;;;;;21.52;17.73;;;9.80;99.90;;;;;;5054261;28;20041;-60
2023/02/14 10:44:39;;;;;;;22.55;18.35;;;9.90;99.90;;;;;;5054125;28;20526;-61
2023/02/14 10:47:23;;;;;;;24.13;18.88;;;10.00;99.90;;;;;;5054272;28;20040;-60
2023/02/14 10:50:05;;;;;;;26.48;19.05;;;9.90;99.90;;;;;;5054101;28;20037;-61
2023/02/14 10:52:33;;;;;;;25.20;19.50;;;9.80;99.90;;;;;;5054434;28;20048;-61
2023/02/14 10:55:10;;;;;;;29.17;20.15;;;10.10;99.90;;;;;;5053989;28;20033;-61
2023/02/14 10:57:41;;;;;;;23.90;18.80;;;10.20;99.90;;;;;;5053927;28;20052;-60
2023/02/14 11:00:19;;;;;;;23.40;18.38;;;10.40;99.90;;;;;;5053807;28;20533;-60
2023/02/14 11:02:49;;;;;;;22.70;18.55;;;10.50;99.90;;;;;;5052599;28;20049;-60
2023/02/14 11:05:44;;;;;;;22.95;18.65;;;10.60;99.90;;;;;;5054473;28;20508;-60
2023/02/14 11:08:24;;;;;;;22.13;18.38;;;10.50;99.90;;;;;;5053811;28;20037;-60
2023/02/14 11:10:51;;;;;;;22.90;18.75;;;10.70;99.90;;;;;;5053637;28;20037;-60
2023/02/14 11:13:33;;;;;;;23.65;19.15;;;10.80;99.90;;;;;;5053597;28;20079;-60
2023/02/14 11:16:05;;;;;;;22.58;18.63;;;10.80;99.90;;;;;;5053679;28;20403;-60
2023/02/14 11:18:34;;;;;;;22.25;18.77;;;10.90;99.90;;;;;;5053599;28;20104;-60
2023/02/14 11:21:00;;;;;;;24.13;19.20;;;11.00;99.90;;;;;;5052446;28;20049;-60
2023/02/14 11:23:30;;;;;;;24.25;19.35;;;11.00;99.90;;;;;;5053323;28;20072;-60
2023/02/14 11:25:56;;;;;;;22.75;19.10;;;11.20;99.90;;;;;;5053518;28;20120;-60
2023/02/14 11:28:22;;;;;;;23.02;18.92;;;11.20;99.90;;;;;;5053765;28;20685;-60
2023/02/14 11:30:49;;;;;;;25.48;19.25;;;11.30;99.90;;;;;;5051655;28;20033;-61
2023/02/14 11:33:36;;;;;;;22.20;19.30;;;11.40;99.90;;;;;;5070615;28;20048;-60
2023/02/14 11:36:08;;;;;;;23.60;18.45;;;11.40;99.90;;;;;;5073107;28;20044;-60
2023/02/14 11:38:37;;;;;;;25.92;19.30;;;11.50;99.90;;;;;;5056351;28;20387;-61
2023/02/14 11:41:05;;;;;;;24.40;19.10;;;11.90;99.90;;;;;;5055011;28;20041;-61
2023/02/14 11:43:38;;;;;;;25.70;19.40;;;11.90;99.90;;;;;;5055498;28;20498;-61
2023/02/14 11:46:15;;;;;;;25.42;19.55;;;11.90;99.90;;;;;;5053390;28;20479;-60
2023/02/14 11:49:22;;;;;;;24.60;19.80;;;12.10;99.90;;;;;;5051152;28;20120;-60
2023/02/14 11:51:49;;;;;;;24.08;19.42;;;12.40;99.90;;;;;;5052953;28;20207;-60
2023/02/14 11:54:26;;;;;;;26.55;19.65;;;12.50;99.90;;;;;;5052753;28;20044;-61
2023/02/14 11:57:27;;;;;;;22.92;19.15;;;12.90;99.90;;;;;;5052734;28;20128;-61
2023/02/14 11:59:55;;;;;;;23.17;18.83;;;13.10;99.90;;;;;;5011076;28;20073;-60
2023/02/14 12:02:40;;;;;;;23.27;18.90;;;13.30;99.90;;;;;;5010914;28;20096;-61
2023/02/14 12:05:30;;;;;;;24.95;19.63;;;13.50;99.90;;;;;;5011019;28;20518;-62
2023/02/14 12:08:14;;;;;;;24.63;19.15;;;13.50;99.90;;;;;;5010814;28;20423;-61
2023/02/14 12:10:43;;;;;;;24.60;18.98;;;13.80;99.90;;;;;;5010774;28;20455;-61
2023/02/14 12:13:08;;;;;;;28.33;20.08;;;14.10;99.90;;;;;;5010782;28;20500;-60
2023/02/14 12:15:43;;;;;;;21.65;18.02;;;14.20;99.90;;;;;;5010739;28;20124;-60
2023/02/14 12:18:33;;;;;;;24.20;19.77;;;14.10;99.90;;;;;;5010500;28;20136;-60
2023/02/14 12:21:11;;;;;;;27.00;20.67;;;14.30;99.90;;;;;;5010507;28;20046;-60
2023/02/14 12:23:43;;;;;;;25.13;19.23;;;14.40;99.90;;;;;;5009899;28;20107;-60
2023/02/14 12:26:35;;;;;;;25.25;19.55;;;14.40;99.90;;;;;;4992375;28;20083;-60
2023/02/14 12:29:11;;;;;;;31.02;20.00;;;14.30;99.90;;;;;;5009395;28;20046;-60
2023/02/14 12:31:36;;;;;;;26.88;19.95;;;14.50;99.90;;;;;;5010416;28;20046;-60
2023/02/14 12:34:03;;;;;;;24.67;19.27;;;14.70;99.90;;;;;;5010351;28;20048;-60
2023/02/14 12:36:56;;;;;;;25.10;19.75;;;14.70;99.90;;;;;;5034828;28;20384;-60
2023/02/14 12:39:53;;;;;;;26.90;20.05;;;14.90;99.90;;;;;;5052287;28;20048;-60
2023/02/14 12:42:37;;;;;;;30.45;20.88;;;15.10;99.90;;;;;;5010155;28;20085;-60
2023/02/14 12:45:27;;;;;;;24.83;19.95;;;15.10;99.90;;;;;;5009472;28;20049;-60
2023/02/14 12:48:11;;;;;;;;;;;15.00;99.90;;;;;;5010501;28;20452;-60
2023/02/14 12:51:03;;;;;;;26.25;20.40;;;14.90;99.90;;;;;;5009719;28;20609;-60
2023/02/14 12:53:44;;;;;;;24.70;20.23;;;15.10;99.90;;;;;;5009890;28;20543;-61
2023/02/14 12:56:25;;;;;;;29.48;19.95;;;15.00;99.90;;;;;;5009866;28;20062;-60
2023/02/14 12:59:27;;;;;;;26.88;19.13;;;15.10;99.90;;;;;;5009998;28;20124;-60
2023/02/14 13:02:17;;;;;;;25.80;21.70;;;15.10;99.90;;;;;;5009945;28;20096;-61
2023/02/14 13:05:05;;;;;;;25.42;20.88;;;15.10;99.90;;;;;;5009952;28;20073;-61
2023/02/14 13:08:00;;;;;;;26.98;21.42;;;15.20;99.90;;;;;;5009954;28;20448;-61
2023/02/14 13:10:41;;;;;;;28.02;19.52;;;15.20;99.90;;;;;;5009587;28;20130;-60
2023/02/14 13:13:33;;;;;;;26.20;20.48;;;15.40;99.90;;;;;;5009762;28;20428;-60